Time;durP1;ratioP1;P1;durP2;ratioP2;P2;SDS_P1;SDS_P2;PMS_P1;PMS_P2;Temp;Humidity;BMP_temperature;BMP_pressure;BME280_temperature;BME280_humidity;BME280_pressure;Samples;Min_cycle;Max_cycle;Signal;HPM_P1;HPM_P2
2021/01/07 00:00:15;;;;;;;9.95;7.97;;;22.20;37.30;;;;;;5149302;27;20582;-62
2021/01/07 00:02:41;;;;;;;10.98;8.38;;;22.20;37.30;;;;;;5150184;27;20070;-62
2021/01/07 00:05:08;;;;;;;10.00;8.00;;;22.20;37.20;;;;;;5149709;27;20081;-62
2021/01/07 00:07:36;;;;;;;9.93;7.88;;;22.20;37.20;;;;;;5150518;27;20052;-62
2021/01/07 00:10:04;;;;;;;10.82;8.23;;;22.20;37.20;;;;;;5149788;27;20141;-62
2021/01/07 00:12:31;;;;;;;9.65;7.47;;;22.10;37.20;;;;;;5150075;27;20079;-62
2021/01/07 00:14:58;;;;;;;10.80;8.18;;;22.20;37.20;;;;;;5149678;27;20490;-62
2021/01/07 00:17:25;;;;;;;9.77;7.47;;;22.20;37.20;;;;;;5149424;27;20082;-62
2021/01/07 00:19:52;;;;;;;10.20;7.40;;;22.20;37.20;;;;;;5149964;27;20050;-61
2021/01/07 00:22:19;;;;;;;8.85;7.18;;;22.10;37.20;;;;;;5149589;27;20552;-62
2021/01/07 00:24:45;;;;;;;10.18;7.00;;;22.20;37.20;;;;;;5149035;27;20491;-62
2021/01/07 00:27:12;;;;;;;9.40;7.55;;;22.20;37.80;;;;;;5149402;27;20142;-62
2021/01/07 00:29:39;;;;;;;8.25;7.18;;;22.20;37.30;;;;;;5149712;27;20047;-63
2021/01/07 00:32:06;;;;;;;8.93;7.10;;;22.10;37.20;;;;;;5149345;27;20103;-65
2021/01/07 00:34:33;;;;;;;10.10;7.00;;;22.10;37.20;;;;;;5149357;27;20095;-62
2021/01/07 00:37:00;;;;;;;8.05;6.50;;;22.10;37.20;;;;;;5149078;27;20039;-62
2021/01/07 00:39:27;;;;;;;7.57;6.50;;;22.10;37.20;;;;;;5131573;27;20102;-63
2021/01/07 00:41:56;;;;;;;8.70;6.90;;;22.10;37.20;;;;;;5148717;27;20074;-62
2021/01/07 00:44:23;;;;;;;7.70;6.20;;;22.10;37.20;;;;;;5149085;27;20066;-62
2021/01/07 00:46:51;;;;;;;7.75;6.07;;;22.10;37.20;;;;;;5149584;27;20070;-65
2021/01/07 00:49:18;;;;;;;8.55;6.82;;;22.10;37.10;;;;;;5130674;27;20124;-62
2021/01/07 00:51:45;;;;;;;8.55;6.43;;;22.20;37.20;;;;;;5148892;27;20475;-62
2021/01/07 00:54:11;;;;;;;7.72;6.28;;;22.10;37.10;;;;;;5149354;27;20126;-62
2021/01/07 00:56:39;;;;;;;6.75;6.05;;;22.10;37.10;;;;;;5130785;27;20530;-62
2021/01/07 00:59:06;;;;;;;7.53;6.22;;;22.10;37.10;;;;;;5149463;27;20051;-62
2021/01/07 01:01:42;;;;;;;8.30;6.50;;;22.10;37.10;;;;;;5148754;27;20076;-65
2021/01/07 01:04:08;;;;;;;8.07;6.72;;;22.10;37.10;;;;;;5148726;27;20045;-62
2021/01/07 01:06:35;;;;;;;7.38;5.90;;;22.10;37.10;;;;;;5149146;27;20095;-62
2021/01/07 01:09:02;;;;;;;7.65;5.88;;;22.10;37.10;;;;;;5149265;27;20468;-62
2021/01/07 01:11:29;;;;;;;6.78;5.45;;;22.10;37.10;;;;;;5149064;27;20110;-65
2021/01/07 01:13:55;;;;;;;5.93;5.13;;;22.10;37.10;;;;;;5148852;27;20046;-62
2021/01/07 01:16:26;;;;;;;6.18;5.30;;;22.10;37.10;;;;;;5149190;27;20077;-62
2021/01/07 01:18:54;;;;;;;6.95;6.05;;;22.00;37.00;;;;;;5148497;27;20047;-62
2021/01/07 01:21:21;;;;;;;6.38;5.78;;;22.10;37.10;;;;;;5148638;27;20082;-65
2021/01/07 01:23:48;;;;;;;7.30;6.22;;;22.10;37.10;;;;;;5148369;27;20115;-62
2021/01/07 01:26:18;;;;;;;7.03;5.50;;;22.10;37.10;;;;;;5149272;27;20077;-66
2021/01/07 01:28:45;;;;;;;8.90;6.07;;;22.00;37.00;;;;;;5130588;27;20474;-62
2021/01/07 01:31:13;;;;;;;5.90;5.03;;;22.00;37.00;;;;;;5147833;27;20042;-62
2021/01/07 01:33:39;;;;;;;6.03;5.43;;;22.10;37.00;;;;;;5130188;27;20167;-62
2021/01/07 01:36:07;;;;;;;7.03;5.72;;;22.10;37.00;;;;;;5152619;27;20111;-62
2021/01/07 01:38:33;;;;;;;6.05;5.13;;;22.10;37.00;;;;;;5151921;27;20077;-62
2021/01/07 01:41:02;;;;;;;7.20;5.22;;;22.10;36.90;;;;;;5134339;27;20503;-62
2021/01/07 01:43:32;;;;;;;6.63;5.05;;;22.10;36.90;;;;;;5152774;27;20134;-62
2021/01/07 01:45:59;;;;;;;7.20;5.60;;;22.10;36.90;;;;;;5117120;27;20137;-64
2021/01/07 01:48:26;;;;;;;5.95;5.10;;;22.10;36.90;;;;;;5152507;27;20547;-62
2021/01/07 01:50:54;;;;;;;5.38;4.75;;;22.10;36.90;;;;;;5152101;27;20127;-62
2021/01/07 01:53:23;;;;;;;6.20;4.80;;;22.10;36.90;;;;;;5152432;27;20046;-62
2021/01/07 01:55:51;;;;;;;5.28;4.50;;;22.10;36.90;;;;;;5133906;27;20134;-63
2021/01/07 01:58:17;;;;;;;5.13;4.50;;;22.00;36.90;;;;;;5152585;27;20050;-62
2021/01/07 02:00:44;;;;;;;4.55;4.13;;;22.00;36.90;;;;;;5152208;27;20081;-62
2021/01/07 02:03:11;;;;;;;5.57;4.97;;;22.00;36.90;;;;;;5151835;27;20129;-62
2021/01/07 02:05:41;;;;;;;5.75;5.10;;;22.00;36.90;;;;;;5152546;27;20042;-62
2021/01/07 02:08:12;;;;;;;6.07;5.03;;;22.00;36.90;;;;;;5152796;27;20125;-62
2021/01/07 02:10:39;;;;;;;6.22;4.72;;;22.00;36.90;;;;;;5152626;27;20138;-62
2021/01/07 02:13:07;;;;;;;4.90;4.38;;;22.00;36.90;;;;;;5152441;27;20154;-62
2021/01/07 02:15:41;;;;;;;6.10;4.97;;;22.00;36.90;;;;;;5152154;27;20074;-62
2021/01/07 02:18:11;;;;;;;5.45;4.68;;;22.00;36.90;;;;;;5151829;27;20754;-62
2021/01/07 02:20:38;;;;;;;5.15;4.63;;;22.00;36.90;;;;;;5152147;27;20046;-65
2021/01/07 02:23:05;;;;;;;4.65;4.15;;;22.00;36.90;;;;;;5133059;27;20501;-62
2021/01/07 02:25:32;;;;;;;5.35;4.45;;;22.00;36.90;;;;;;5150934;27;20042;-62
2021/01/07 02:27:59;;;;;;;5.53;4.38;;;22.00;36.90;;;;;;5133513;27;20380;-62
2021/01/07 02:30:26;;;;;;;5.50;4.55;;;22.00;36.90;;;;;;5151569;27;20138;-62
2021/01/07 02:32:52;;;;;;;6.53;4.82;;;22.00;36.90;;;;;;5151660;27;20050;-62
2021/01/07 02:35:19;;;;;;;4.65;4.15;;;22.00;36.80;;;;;;5151728;27;20077;-62
2021/01/07 02:37:46;;;;;;;5.25;4.65;;;22.00;36.80;;;;;;5151514;27;20134;-66
2021/01/07 02:40:14;;;;;;;4.80;3.88;;;22.00;36.80;;;;;;5151144;27;20055;-62
2021/01/07 02:42:42;;;;;;;5.65;4.15;;;22.00;36.90;;;;;;5151592;27;20050;-62
2021/01/07 02:45:09;;;;;;;4.40;3.80;;;22.00;36.80;;;;;;5151254;27;20042;-62
2021/01/07 02:47:37;;;;;;;5.20;4.18;;;22.00;36.90;;;;;;5151909;27;20566;-62
2021/01/07 02:50:06;;;;;;;4.70;4.05;;;22.00;36.90;;;;;;5151418;27;20138;-62
2021/01/07 02:52:32;;;;;;;5.03;4.25;;;21.90;36.80;;;;;;5150793;27;20129;-62
2021/01/07 02:54:59;;;;;;;4.07;3.63;;;21.90;36.80;;;;;;5151139;27;20095;-62
2021/01/07 02:57:26;;;;;;;5.30;3.47;;;22.00;36.90;;;;;;5151721;27;20402;-62
2021/01/07 02:59:53;;;;;;;4.47;4.07;;;21.90;36.80;;;;;;5151755;27;20138;-65
2021/01/07 03:02:19;;;;;;;4.35;3.65;;;21.90;36.80;;;;;;5151412;27;20113;-62
2021/01/07 03:04:46;;;;;;;3.55;3.13;;;21.90;36.90;;;;;;5150719;27;20089;-62
2021/01/07 03:07:13;;;;;;;3.63;3.25;;;21.90;36.80;;;;;;5151251;27;20209;-62
2021/01/07 03:09:42;;;;;;;4.32;3.55;;;21.90;36.80;;;;;;5150742;27;20129;-62
2021/01/07 03:12:13;;;;;;;4.90;3.65;;;21.90;36.80;;;;;;5151418;27;20562;-62
2021/01/07 03:14:40;;;;;;;4.10;3.45;;;21.90;36.80;;;;;;5150884;27;20119;-65
2021/01/07 03:17:07;;;;;;;3.38;3.05;;;21.90;37.30;;;;;;5150856;27;20265;-62
2021/01/07 03:19:35;;;;;;;4.28;3.30;;;22.00;36.80;;;;;;5149795;27;20093;-62
2021/01/07 03:22:03;;;;;;;3.58;3.28;;;21.90;36.70;;;;;;5150710;27;20042;-62
2021/01/07 03:24:31;;;;;;;4.00;3.60;;;21.90;36.70;;;;;;5131780;27;20122;-62
2021/01/07 03:26:58;;;;;;;3.33;3.03;;;21.90;36.70;;;;;;5150625;27;20246;-62
2021/01/07 03:29:26;;;;;;;4.35;3.50;;;21.90;36.70;;;;;;5150544;27;20047;-61
2021/01/07 03:31:54;;;;;;;3.90;3.50;;;21.90;36.70;;;;;;5150611;27;20051;-65
2021/01/07 03:34:21;;;;;;;4.60;3.30;;;21.90;36.80;;;;;;5150250;27;20157;-62
2021/01/07 03:36:48;;;;;;;3.20;2.72;;;21.90;36.80;;;;;;5150722;27;20099;-62
2021/01/07 03:39:15;;;;;;;3.33;3.03;;;21.90;36.80;;;;;;5150439;27;20043;-62
2021/01/07 03:41:42;;;;;;;3.13;2.75;;;21.90;36.80;;;;;;5149680;27;20043;-62
2021/01/07 03:44:09;;;;;;;4.03;3.35;;;21.90;36.80;;;;;;5150319;27;20125;-62
2021/01/07 03:46:37;;;;;;;3.60;3.30;;;21.90;36.80;;;;;;5150026;27;20078;-62
2021/01/07 03:49:04;;;;;;;3.33;2.95;;;21.90;36.80;;;;;;5150296;27;20096;-62
2021/01/07 03:51:32;;;;;;;4.13;3.47;;;21.90;36.80;;;;;;5150267;27;20110;-62
2021/01/07 03:53:58;;;;;;;3.08;2.78;;;21.90;36.80;;;;;;5131696;27;20043;-62
2021/01/07 03:56:26;;;;;;;3.92;3.50;;;21.90;36.70;;;;;;5149752;27;20134;-64
2021/01/07 03:58:52;;;;;;;3.63;3.20;;;21.90;36.70;;;;;;5150106;27;20072;-61
2021/01/07 04:01:19;;;;;;;4.03;3.47;;;21.90;36.70;;;;;;5131258;27;20711;-62
2021/01/07 04:03:45;;;;;;;3.03;2.80;;;21.90;36.70;;;;;;5150115;27;20135;-62
2021/01/07 04:06:12;;;;;;;2.80;2.50;;;21.90;36.60;;;;;;5149258;27;20129;-62
2021/01/07 04:08:39;;;;;;;3.25;2.80;;;21.90;36.60;;;;;;5150641;27;20095;-65
2021/01/07 04:11:06;;;;;;;4.50;2.80;;;21.90;36.60;;;;;;5131137;27;20138;-62
2021/01/07 04:13:32;;;;;;;3.08;2.63;;;21.90;36.60;;;;;;5149919;27;20141;-62
2021/01/07 04:15:59;;;;;;;3.42;2.63;;;21.90;36.60;;;;;;5149453;27;20062;-62
2021/01/07 04:18:26;;;;;;;3.42;2.95;;;21.90;36.60;;;;;;5149456;27;20084;-62
2021/01/07 04:20:53;;;;;;;3.65;3.05;;;21.90;36.60;;;;;;5149389;27;20050;-62
2021/01/07 04:23:20;;;;;;;2.75;2.55;;;21.90;36.70;;;;;;5149525;27;20053;-62
2021/01/07 04:25:46;;;;;;;2.85;2.50;;;21.90;36.60;;;;;;5149195;27;20078;-62
2021/01/07 04:28:14;;;;;;;3.42;2.65;;;21.90;36.70;;;;;;5149318;27;20110;-62
2021/01/07 04:30:40;;;;;;;3.65;3.03;;;21.90;36.70;;;;;;5130206;27;20089;-62
2021/01/07 04:33:09;;;;;;;2.30;2.10;;;21.90;36.70;;;;;;5149394;27;20047;-62
2021/01/07 04:35:35;;;;;;;2.55;2.35;;;21.90;36.70;;;;;;5149762;27;20103;-62
2021/01/07 04:38:02;;;;;;;2.38;2.17;;;21.90;36.70;;;;;;5149518;27;20787;-62
2021/01/07 04:40:29;;;;;;;2.90;2.38;;;21.90;36.70;;;;;;5149627;27;20034;-62
2021/01/07 04:42:56;;;;;;;2.35;2.15;;;21.80;36.60;;;;;;5130217;27;20047;-62
2021/01/07 04:45:23;;;;;;;2.70;2.50;;;21.90;36.70;;;;;;5149022;27;20070;-62
2021/01/07 04:47:50;;;;;;;2.67;2.47;;;21.90;36.70;;;;;;5149391;27;20073;-62
2021/01/07 04:50:17;;;;;;;2.95;2.25;;;21.90;36.70;;;;;;5149376;27;20074;-62
2021/01/07 04:52:44;;;;;;;3.42;2.70;;;21.90;36.60;;;;;;5149751;27;20145;-62
2021/01/07 04:55:12;;;;;;;2.60;2.40;;;21.90;36.60;;;;;;5149047;27;20125;-62
2021/01/07 04:58:03;;;;;;;3.17;2.90;;;21.90;36.60;;;;;;5132945;27;20182;-62
2021/01/07 05:00:30;;;;;;;;;;;21.90;36.60;;;;;;5148201;27;20086;-62
2021/01/07 05:03:00;;;;;;;2.50;2.30;;;21.90;36.60;;;;;;5149478;27;20009;-65
2021/01/07 05:05:27;;;;;;;2.10;1.88;;;21.90;36.60;;;;;;5112633;28;20074;-62
2021/01/07 05:07:57;;;;;;;2.83;2.50;;;21.90;36.60;;;;;;5127578;27;20106;-62
2021/01/07 05:10:25;;;;;;;2.90;2.15;;;21.90;36.60;;;;;;5130760;27;20046;-62
2021/01/07 05:12:52;;;;;;;2.88;2.60;;;21.90;36.60;;;;;;5131927;27;20112;-63
2021/01/07 05:15:19;;;;;;;2.17;1.98;;;21.90;36.60;;;;;;5131172;27;20489;-62
2021/01/07 05:17:46;;;;;;;2.88;2.25;;;21.90;36.60;;;;;;5131832;27;20123;-61
2021/01/07 05:20:13;;;;;;;2.10;1.88;;;21.90;36.60;;;;;;5132411;27;20067;-62
2021/01/07 05:22:42;;;;;;;2.33;2.13;;;21.80;36.50;;;;;;5114363;27;20089;-62
2021/01/07 05:25:15;;;;;;;2.47;2.28;;;21.80;36.50;;;;;;5132452;27;20050;-62
2021/01/07 05:27:43;;;;;;;4.80;2.05;;;21.90;36.60;;;;;;5114429;27;20144;-62
2021/01/07 05:30:12;;;;;;;2.13;1.90;;;21.80;36.60;;;;;;5132415;27;20442;-62
2021/01/07 05:32:41;;;;;;;2.13;1.92;;;21.80;36.60;;;;;;5131545;27;20131;-62
2021/01/07 05:35:10;;;;;;;2.35;2.15;;;21.90;36.60;;;;;;5132298;27;20655;-62
2021/01/07 05:37:39;;;;;;;2.40;2.20;;;21.90;36.60;;;;;;5131639;27;20072;-62
2021/01/07 05:40:08;;;;;;;1.95;1.85;;;21.90;36.60;;;;;;5137941;27;20043;-62
2021/01/07 05:42:44;;;;;;;1.98;1.80;;;21.90;36.60;;;;;;5126105;27;20078;-62
2021/01/07 05:45:17;;;;;;;2.65;2.00;;;21.90;36.50;;;;;;5133553;27;20202;-62
2021/01/07 05:47:49;;;;;;;2.83;2.15;;;21.90;36.50;;;;;;5150203;27;20217;-62
2021/01/07 05:50:19;;;;;;;3.03;2.20;;;21.90;36.50;;;;;;5143708;27;20078;-62
2021/01/07 05:52:47;;;;;;;2.28;1.77;;;21.80;36.50;;;;;;5147099;27;20127;-62
2021/01/07 05:55:17;;;;;;;1.90;1.70;;;21.80;36.50;;;;;;5131615;27;20044;-63
2021/01/07 05:57:44;;;;;;;2.50;2.30;;;21.80;36.50;;;;;;5130670;27;20079;-62
2021/01/07 06:00:15;;;;;;;1.90;1.80;;;21.80;36.50;;;;;;5130684;27;20075;-62
2021/01/07 06:02:44;;;;;;;2.08;1.90;;;21.80;36.50;;;;;;5127508;27;20707;-62
2021/01/07 06:05:13;;;;;;;1.92;1.77;;;21.80;36.50;;;;;;5134493;27;20051;-62
2021/01/07 06:07:42;;;;;;;2.78;2.20;;;21.80;36.50;;;;;;5147538;27;20038;-62
2021/01/07 06:10:10;;;;;;;2.35;2.15;;;21.80;36.40;;;;;;5134935;27;20047;-62
2021/01/07 06:12:37;;;;;;;2.95;2.70;;;21.80;36.40;;;;;;5130591;27;20124;-62
2021/01/07 06:15:13;;;;;;;4.10;3.17;;;21.80;36.40;;;;;;5130452;27;20040;-67
2021/01/07 06:17:40;;;;;;;2.90;2.67;;;21.80;36.40;;;;;;5127653;27;20039;-62
2021/01/07 06:20:21;;;;;;;3.95;3.35;;;21.70;36.30;;;;;;5135595;27;20049;-62
2021/01/07 06:22:51;;;;;;;;;;;21.80;36.30;;;;;;5112841;27;20118;-62
2021/01/07 06:25:21;;;;;;;3.22;2.90;;;21.80;36.30;;;;;;5127486;27;20353;-63
2021/01/07 06:27:49;;;;;;;3.45;3.15;;;21.80;36.30;;;;;;5136952;27;20078;-63
2021/01/07 06:30:32;;;;;;;3.13;2.83;;;21.90;36.30;;;;;;5133933;27;20108;-62
2021/01/07 06:33:05;;;;;;;3.40;2.95;;;22.00;36.30;;;;;;5127615;27;20051;-65
2021/01/07 06:35:37;;;;;;;3.30;3.00;;;22.00;36.20;;;;;;5130546;27;20100;-62
2021/01/07 06:38:04;;;;;;;2.72;2.53;;;22.10;36.10;;;;;;5123623;27;20126;-62
2021/01/07 06:40:39;;;;;;;4.05;3.55;;;22.10;36.00;;;;;;5126072;27;20143;-62
2021/01/07 06:43:17;;;;;;;3.83;3.28;;;22.20;35.90;;;;;;5130685;27;20111;-63
2021/01/07 06:46:04;;;;;;;3.10;2.90;;;22.30;35.90;;;;;;5125713;27;20122;-66
2021/01/07 06:48:58;;;;;;;3.38;2.97;;;22.40;35.80;;;;;;5114357;27;20061;-66
2021/01/07 06:51:32;;;;;;;3.15;2.85;;;22.50;35.70;;;;;;5118000;27;20043;-67
2021/01/07 06:54:00;;;;;;;3.63;3.20;;;22.60;35.50;;;;;;5120431;27;20054;-65
2021/01/07 06:56:30;;;;;;;3.97;3.58;;;22.60;35.50;;;;;;5128365;27;20130;-65
2021/01/07 06:58:58;;;;;;;4.07;3.67;;;22.70;35.30;;;;;;5132659;27;20043;-64
2021/01/07 07:01:25;;;;;;;4.20;3.80;;;22.70;35.50;;;;;;5127841;27;20079;-66
2021/01/07 07:03:53;;;;;;;4.18;3.45;;;22.80;35.70;;;;;;5125916;27;20075;-66
2021/01/07 07:06:26;;;;;;;7.35;2.90;;;22.90;35.40;;;;;;5124102;27;20096;-66
2021/01/07 07:08:52;;;;;;;4.03;3.38;;;22.90;35.20;;;;;;5137928;27;20104;-66
2021/01/07 07:11:34;;;;;;;5.15;3.53;;;22.90;35.30;;;;;;5139191;27;20043;-66
2021/01/07 07:14:06;;;;;;;3.22;3.00;;;23.10;35.60;;;;;;5125945;27;20047;-65
2021/01/07 07:16:35;;;;;;;3.83;3.22;;;23.10;35.60;;;;;;5134094;27;20051;-67
2021/01/07 07:19:05;;;;;;;3.45;3.08;;;23.00;35.40;;;;;;5118565;27;20163;-64
2021/01/07 07:21:31;;;;;;;3.10;2.80;;;23.00;35.50;;;;;;5127594;27;20554;-63
2021/01/07 07:24:08;;;;;;;4.00;3.03;;;23.00;35.60;;;;;;5126763;27;20179;-66
2021/01/07 07:26:40;;;;;;;4.63;2.90;;;23.00;35.60;;;;;;5130071;27;20047;-66
2021/01/07 07:29:12;;;;;;;3.25;2.95;;;23.00;35.70;;;;;;5126835;27;20131;-68
2021/01/07 07:31:41;;;;;;;3.80;3.40;;;23.00;35.70;;;;;;5118739;27;20443;-67
2021/01/07 07:34:09;;;;;;;3.80;2.97;;;23.10;35.90;;;;;;5113625;27;20047;-65
2021/01/07 07:36:36;;;;;;;3.50;3.15;;;23.10;35.90;;;;;;5114639;27;20124;-65
2021/01/07 07:39:05;;;;;;;3.15;2.85;;;23.10;36.00;;;;;;5126472;27;21580;-63
2021/01/07 07:41:39;;;;;;;5.68;3.30;;;23.20;36.20;;;;;;5120888;27;20058;-64
2021/01/07 07:44:06;;;;;;;3.60;2.80;;;23.20;36.20;;;;;;5121717;27;20035;-66
2021/01/07 07:46:35;;;;;;;4.57;3.70;;;23.30;36.30;;;;;;5122328;27;20047;-64
2021/01/07 07:49:04;;;;;;;4.25;3.13;;;23.30;36.30;;;;;;5122801;27;20460;-62
2021/01/07 07:51:31;;;;;;;3.65;3.08;;;23.40;36.30;;;;;;5124208;27;20076;-66
2021/01/07 07:54:04;;;;;;;3.22;2.92;;;23.40;36.30;;;;;;5121353;27;20039;-66
2021/01/07 07:56:31;;;;;;;4.55;2.67;;;23.50;36.30;;;;;;5132754;27;20051;-67
2021/01/07 07:59:19;;;;;;;3.10;2.90;;;23.50;36.10;;;;;;5124893;27;20066;-62
2021/01/07 08:01:48;;;;;;;6.93;2.90;;;23.60;36.00;;;;;;5126367;27;20075;-64
2021/01/07 08:04:21;;;;;;;2.95;2.75;;;23.60;35.90;;;;;;5136982;27;20042;-61
2021/01/07 08:06:49;;;;;;;3.47;2.75;;;23.70;35.90;;;;;;5127825;27;20698;-64
2021/01/07 08:09:19;;;;;;;3.70;3.13;;;23.70;35.90;;;;;;5137608;27;20050;-64
2021/01/07 08:11:50;;;;;;;3.75;3.13;;;23.80;35.90;;;;;;5118060;27;20071;-66
2021/01/07 08:14:23;;;;;;;4.20;3.15;;;23.80;35.80;;;;;;5108177;27;20134;-66
2021/01/07 08:16:55;;;;;;;3.40;3.10;;;23.80;35.60;;;;;;5126910;27;20039;-63
2021/01/07 08:19:32;;;;;;;3.30;3.00;;;23.80;35.50;;;;;;5127075;27;20035;-63
2021/01/07 08:25:26;;;;;;;7.38;3.15;;;23.80;35.70;;;;;;5121018;27;20043;-61
2021/01/07 08:27:59;;;;;;;4.05;2.88;;;23.80;35.80;;;;;;5123518;27;20084;-67
2021/01/07 08:30:26;;;;;;;4.28;2.67;;;23.80;35.90;;;;;;5098006;27;20556;-63
2021/01/07 08:32:57;;;;;;;3.28;2.28;;;23.80;35.80;;;;;;5125453;27;20077;-65
2021/01/07 08:35:26;;;;;;;4.03;3.53;;;23.80;35.80;;;;;;5119541;27;20126;-65
2021/01/07 08:37:52;;;;;;;4.25;2.70;;;23.80;35.80;;;;;;5120486;27;20083;-66
2021/01/07 08:40:22;;;;;;;2.50;2.30;;;23.80;35.90;;;;;;5116841;27;20075;-62
2021/01/07 08:42:48;;;;;;;3.10;2.80;;;23.90;36.00;;;;;;5116614;27;20069;-65
2021/01/07 08:45:15;;;;;;;3.45;3.15;;;23.90;36.00;;;;;;5121027;27;20067;-67
2021/01/07 08:48:05;;;;;;;5.93;2.80;;;24.00;35.90;;;;;;5124940;27;20049;-67
2021/01/07 08:50:33;;;;;;;4.38;3.00;;;24.10;35.80;;;;;;5128826;27;20487;-67
2021/01/07 08:53:06;;;;;;;5.07;3.10;;;24.10;35.70;;;;;;5119031;27;20085;-65
2021/01/07 08:55:47;;;;;;;4.30;3.20;;;24.10;35.50;;;;;;5139008;27;20047;-64
2021/01/07 08:58:25;;;;;;;3.22;2.92;;;24.10;35.30;;;;;;5157670;27;20068;-64
2021/01/07 09:00:53;;;;;;;3.28;2.97;;;24.10;35.10;;;;;;5150249;27;20149;-66
2021/01/07 09:03:20;;;;;;;4.32;3.15;;;24.10;35.00;;;;;;5113572;27;20063;-66
2021/01/07 09:05:48;;;;;;;3.50;3.20;;;24.10;34.90;;;;;;5124157;27;20706;-67
2021/01/07 09:08:15;;;;;;;3.42;3.13;;;24.20;34.90;;;;;;5104799;27;20074;-66
2021/01/07 09:10:42;;;;;;;5.03;3.38;;;24.10;34.80;;;;;;5118480;27;20039;-66
2021/01/07 09:13:20;;;;;;;6.55;3.65;;;24.20;34.70;;;;;;5118340;27;20051;-66
2021/01/07 09:15:47;;;;;;;3.75;3.35;;;24.20;34.60;;;;;;5119324;27;20126;-66
2021/01/07 09:18:20;;;;;;;3.65;3.28;;;24.30;34.60;;;;;;5111446;27;20130;-63
2021/01/07 09:20:47;;;;;;;3.78;3.22;;;24.30;34.60;;;;;;5115372;27;20120;-63
2021/01/07 09:23:17;;;;;;;4.28;3.88;;;24.30;34.70;;;;;;5099377;27;20043;-64
2021/01/07 09:25:44;;;;;;;4.10;3.80;;;24.30;34.70;;;;;;5116235;27;20082;-63
2021/01/07 09:28:11;;;;;;;4.13;3.58;;;24.30;34.50;;;;;;5100484;28;20051;-63
2021/01/07 09:30:38;;;;;;;4.30;3.90;;;24.30;34.90;;;;;;5120921;27;20081;-62
2021/01/07 09:33:05;;;;;;;4.20;3.80;;;24.30;34.20;;;;;;5115953;27;20875;-64
2021/01/07 09:35:31;;;;;;;5.57;3.55;;;24.40;34.20;;;;;;5119157;27;20062;-62
2021/01/07 09:38:01;;;;;;;4.00;3.60;;;24.30;34.10;;;;;;5117060;27;20145;-64
2021/01/07 09:40:28;;;;;;;4.63;4.10;;;24.30;33.90;;;;;;5120841;27;20047;-62
2021/01/07 09:42:55;;;;;;;5.35;4.45;;;24.30;33.70;;;;;;5116691;27;21152;-66
2021/01/07 09:45:23;;;;;;;4.50;4.10;;;24.30;33.50;;;;;;5117339;27;20500;-68
2021/01/07 09:47:50;;;;;;;5.53;4.82;;;24.30;33.40;;;;;;5124033;27;20128;-68
2021/01/07 09:50:24;;;;;;;7.70;4.05;;;24.30;33.30;;;;;;5095325;27;20047;-68
2021/01/07 09:52:50;;;;;;;4.80;4.32;;;24.30;33.30;;;;;;5118297;27;20130;-67
2021/01/07 09:55:17;;;;;;;7.13;4.40;;;24.30;33.60;;;;;;5102566;27;20061;-67
2021/01/07 09:57:48;;;;;;;5.78;4.55;;;24.30;33.50;;;;;;5088359;27;20090;-69
2021/01/07 10:00:16;;;;;;;5.93;4.43;;;24.40;33.60;;;;;;5129801;27;20049;-65
2021/01/07 10:02:43;;;;;;;7.32;5.50;;;24.40;33.50;;;;;;5110595;27;20129;-63
2021/01/07 10:05:10;;;;;;;5.57;4.57;;;24.40;33.30;;;;;;5126615;27;20063;-64
2021/01/07 10:07:37;;;;;;;5.72;4.60;;;24.50;33.40;;;;;;5107895;27;20142;-70
2021/01/07 10:10:04;;;;;;;5.35;4.68;;;24.50;33.30;;;;;;5119186;27;20058;-67
2021/01/07 10:12:31;;;;;;;7.25;4.68;;;24.50;33.30;;;;;;5126068;27;20191;-66
2021/01/07 10:14:57;;;;;;;5.97;5.00;;;24.50;33.30;;;;;;5112223;27;20075;-64
2021/01/07 10:17:24;;;;;;;7.88;5.22;;;24.50;33.30;;;;;;5109190;27;20463;-64
2021/01/07 10:19:51;;;;;;;5.90;5.05;;;24.60;33.30;;;;;;5120160;27;20142;-67
2021/01/07 10:22:23;;;;;;;5.95;5.00;;;24.60;33.20;;;;;;5105635;27;20050;-67
2021/01/07 10:24:51;;;;;;;10.00;5.68;;;24.60;32.80;;;;;;5125647;27;20039;-65
2021/01/07 10:27:18;;;;;;;6.05;5.10;;;24.60;32.60;;;;;;5125672;27;20051;-67
2021/01/07 10:29:46;;;;;;;7.57;5.28;;;24.60;32.40;;;;;;5132284;27;20043;-65
2021/01/07 10:32:18;;;;;;;10.65;5.50;;;24.60;32.40;;;;;;5121279;27;20038;-61
2021/01/07 10:34:48;;;;;;;7.30;5.28;;;24.60;32.40;;;;;;5130327;27;20170;-66
2021/01/07 10:37:19;;;;;;;6.55;5.18;;;24.60;32.60;;;;;;5117873;27;20064;-67
2021/01/07 10:39:48;;;;;;;5.32;4.55;;;24.60;33.40;;;;;;5115302;27;20487;-64
2021/01/07 10:42:16;;;;;;;10.18;5.50;;;24.60;33.40;;;;;;5084414;27;20055;-68
2021/01/07 10:44:45;;;;;;;7.15;5.10;;;24.60;33.70;;;;;;5127490;27;20039;-70
2021/01/07 10:47:14;;;;;;;5.80;4.63;;;24.70;33.80;;;;;;5130395;27;20059;-64
2021/01/07 10:49:43;;;;;;;6.40;5.35;;;24.70;33.80;;;;;;5124047;27;20040;-65
2021/01/07 10:52:47;;;;;;;7.72;5.78;;;24.70;33.80;;;;;;5127712;27;20610;-67
2021/01/07 10:55:24;;;;;;;5.93;5.05;;;24.80;33.80;;;;;;5126429;27;20040;-66
2021/01/07 10:58:26;;;;;;;6.95;5.57;;;24.80;33.90;;;;;;5115468;27;20043;-66
2021/01/07 11:01:28;;;;;;;6.75;5.10;;;24.90;33.90;;;;;;5106439;27;20039;-65
2021/01/07 11:04:30;;;;;;;5.93;5.10;;;24.90;33.90;;;;;;5125485;27;20104;-66
2021/01/07 11:07:19;;;;;;;8.40;5.60;;;24.90;33.90;;;;;;5103300;27;20115;-65
2021/01/07 11:09:50;;;;;;;7.43;5.68;;;24.90;33.80;;;;;;5122979;27;20065;-65
2021/01/07 11:12:27;;;;;;;7.93;6.07;;;24.90;33.70;;;;;;5132167;27;20045;-65
2021/01/07 11:15:05;;;;;;;8.32;5.93;;;24.90;33.60;;;;;;5131659;27;20078;-68
2021/01/07 11:17:53;;;;;;;8.48;6.00;;;24.80;33.30;;;;;;5081272;27;20051;-65
2021/01/07 11:20:23;;;;;;;7.88;6.15;;;24.80;33.00;;;;;;5119966;27;20599;-65
2021/01/07 11:22:50;;;;;;;;;;;24.80;32.70;;;;;;5130560;27;20146;-66
2021/01/07 11:25:17;;;;;;;8.07;5.88;;;24.80;31.50;;;;;;5135165;27;19926;-67
2021/01/07 11:27:45;;;;;;;6.88;6.15;;;24.80;32.00;;;;;;5126621;27;20471;-67
2021/01/07 11:30:32;;;;;;;8.48;6.07;;;24.70;32.10;;;;;;5128153;27;20497;-67
2021/01/07 11:33:02;;;;;;;7.22;6.28;;;24.70;32.30;;;;;;5119010;27;20045;-67
2021/01/07 11:35:30;;;;;;;7.30;5.82;;;24.70;32.40;;;;;;5126731;27;20384;-61
2021/01/07 11:38:03;;;;;;;8.55;6.40;;;24.70;32.40;;;;;;5132724;27;20123;-65
2021/01/07 11:40:58;;;;;;;8.70;5.78;;;24.70;32.40;;;;;;5124474;27;20076;-63
2021/01/07 11:43:55;;;;;;;7.50;6.32;;;24.70;32.50;;;;;;5109711;27;20114;-66
2021/01/07 11:46:22;;;;;;;8.32;6.22;;;24.70;32.30;;;;;;5119298;27;20072;-66
2021/01/07 11:48:57;;;;;;;8.30;5.50;;;24.70;32.30;;;;;;5117775;28;20472;-64
2021/01/07 11:51:24;;;;;;;7.88;5.70;;;24.70;32.30;;;;;;5117329;28;20130;-64
2021/01/07 11:53:56;;;;;;;7.57;6.03;;;24.70;32.30;;;;;;5117615;28;20086;-63
2021/01/07 11:56:23;;;;;;;8.68;6.10;;;24.80;32.30;;;;;;5117184;28;20527;-62
2021/01/07 11:58:52;;;;;;;7.43;5.70;;;24.80;32.10;;;;;;5117581;28;20071;-64
2021/01/07 12:01:21;;;;;;;6.50;5.45;;;24.80;32.00;;;;;;5116999;28;20468;-67
2021/01/07 12:03:48;;;;;;;6.28;4.55;;;24.80;31.90;;;;;;5127047;27;20847;-65
2021/01/07 12:06:17;;;;;;;7.03;4.97;;;24.80;31.80;;;;;;5117959;27;20142;-67
2021/01/07 12:09:10;;;;;;;8.70;5.40;;;24.80;31.70;;;;;;5132828;27;20074;-65
2021/01/07 12:11:49;;;;;;;6.57;5.18;;;24.80;31.70;;;;;;5150061;27;20074;-64
2021/01/07 12:14:17;;;;;;;6.40;5.65;;;24.80;31.80;;;;;;5129154;27;20047;-68
2021/01/07 12:16:50;;;;;;;6.93;5.50;;;24.80;31.90;;;;;;5121106;27;20053;-64
2021/01/07 12:19:34;;;;;;;6.78;5.43;;;24.80;32.10;;;;;;5103929;27;20047;-65
2021/01/07 12:22:03;;;;;;;6.65;5.93;;;24.80;32.30;;;;;;5122493;27;20116;-67
2021/01/07 12:24:32;;;;;;;6.05;5.28;;;24.80;32.30;;;;;;5119509;27;20069;-65
2021/01/07 12:27:00;;;;;;;13.93;5.90;;;24.90;32.40;;;;;;5106516;27;20043;-66
2021/01/07 12:29:27;;;;;;;6.93;5.72;;;24.90;32.40;;;;;;5123727;27;20096;-66
2021/01/07 12:31:56;;;;;;;6.30;5.55;;;24.90;32.40;;;;;;5123069;27;20517;-64
2021/01/07 12:35:02;;;;;;;5.03;4.53;;;24.90;32.40;;;;;;5127573;27;20043;-68
2021/01/07 12:38:09;;;;;;;8.93;5.43;;;24.90;32.40;;;;;;5102702;27;20295;-63
2021/01/07 12:40:39;;;;;;;7.78;4.55;;;24.90;32.40;;;;;;5105877;27;20039;-65
2021/01/07 12:43:07;;;;;;;10.27;4.68;;;24.90;32.70;;;;;;5126676;27;20054;-65
2021/01/07 12:45:37;;;;;;;5.38;4.70;;;24.90;32.70;;;;;;5120205;27;20044;-61
2021/01/07 12:48:04;;;;;;;7.85;4.50;;;24.90;32.50;;;;;;5118112;27;20772;-62
2021/01/07 12:50:31;;;;;;;5.85;4.78;;;24.90;32.40;;;;;;5123487;27;20620;-59
2021/01/07 12:53:00;;;;;;;8.18;4.15;;;24.90;32.20;;;;;;5121309;27;20430;-60
2021/01/07 12:55:27;;;;;;;5.90;4.85;;;24.90;32.00;;;;;;5108955;27;20563;-63
2021/01/07 12:58:15;;;;;;;5.50;4.90;;;24.90;31.90;;;;;;5124359;27;20049;-60
2021/01/07 13:01:12;;;;;;;7.50;4.65;;;24.90;32.00;;;;;;5121479;27;20107;-60
2021/01/07 13:03:57;;;;;;;6.18;4.82;;;24.90;32.10;;;;;;5124353;27;20572;-61
2021/01/07 13:06:38;;;;;;;8.63;4.05;;;24.90;32.20;;;;;;5123842;27;20053;-60